createdAt,value
2018-08-06T00:00:47.000Z,29
2018-08-06T00:01:47.000Z,29
2018-08-06T00:02:47.000Z,29
2018-08-06T00:04:47.000Z,29
2018-08-06T00:05:47.000Z,29
2018-08-06T00:06:47.000Z,29
2018-08-06T00:08:47.000Z,29
2018-08-06T00:10:47.000Z,29
2018-08-06T00:11:47.000Z,29
2018-08-06T00:12:47.000Z,29
2018-08-06T00:13:47.000Z,29
2018-08-06T00:14:47.000Z,29
2018-08-06T00:15:47.000Z,29
2018-08-06T00:16:47.000Z,29
2018-08-06T00:17:47.000Z,29
2018-08-06T00:18:47.000Z,29
2018-08-06T00:19:47.000Z,29
2018-08-06T00:20:47.000Z,29
2018-08-06T00:21:47.000Z,29
2018-08-06T00:22:47.000Z,29
2018-08-06T00:23:47.000Z,29
2018-08-06T00:24:47.000Z,29
2018-08-06T00:25:47.000Z,29
2018-08-06T00:26:47.000Z,29
2018-08-06T00:27:47.000Z,29
2018-08-06T00:28:47.000Z,29
2018-08-06T00:30:47.000Z,29
2018-08-06T00:31:47.000Z,29
2018-08-06T00:32:47.000Z,29
2018-08-06T00:33:47.000Z,29
2018-08-06T00:34:47.000Z,29
2018-08-06T00:35:47.000Z,29
2018-08-06T00:36:47.000Z,29
2018-08-06T00:37:47.000Z,29
2018-08-06T00:38:47.000Z,29
2018-08-06T00:39:47.000Z,29
2018-08-06T00:40:47.000Z,29
2018-08-06T00:42:47.000Z,29
2018-08-06T00:43:47.000Z,29
2018-08-06T00:44:47.000Z,29
2018-08-06T00:45:47.000Z,29
2018-08-06T00:46:47.000Z,29
2018-08-06T00:47:47.000Z,29
2018-08-06T00:48:47.000Z,29
2018-08-06T00:50:47.000Z,29
2018-08-06T00:51:47.000Z,29
2018-08-06T00:52:47.000Z,29
2018-08-06T00:53:47.000Z,29
2018-08-06T00:54:47.000Z,29
2018-08-06T00:55:47.000Z,29
2018-08-06T00:57:47.000Z,29
2018-08-06T00:58:47.000Z,29
2018-08-06T00:59:47.000Z,29
2018-08-06T01:01:47.000Z,29
2018-08-06T01:02:47.000Z,29
2018-08-06T01:03:47.000Z,29
2018-08-06T01:04:47.000Z,29
2018-08-06T01:05:47.000Z,29
2018-08-06T01:06:47.000Z,29
2018-08-06T01:07:47.000Z,29
2018-08-06T01:08:47.000Z,29
2018-08-06T01:09:47.000Z,29
2018-08-06T01:10:47.000Z,29
2018-08-06T01:11:47.000Z,29
2018-08-06T01:12:47.000Z,29
2018-08-06T01:13:47.000Z,29
2018-08-06T01:14:47.000Z,29
2018-08-06T01:15:47.000Z,29
2018-08-06T01:16:47.000Z,29
2018-08-06T01:17:47.000Z,29
2018-08-06T01:18:47.000Z,29
2018-08-06T01:19:47.000Z,29
2018-08-06T01:20:47.000Z,29
2018-08-06T01:21:47.000Z,28
2018-08-06T01:22:47.000Z,29
2018-08-06T01:23:47.000Z,29
2018-08-06T01:25:47.000Z,28
2018-08-06T01:26:47.000Z,29
2018-08-06T01:27:47.000Z,29
2018-08-06T01:28:47.000Z,29
2018-08-06T01:29:47.000Z,29
2018-08-06T01:30:47.000Z,29
2018-08-06T01:31:47.000Z,29
2018-08-06T01:33:47.000Z,29
2018-08-06T01:35:47.000Z,29
2018-08-06T01:36:47.000Z,29
2018-08-06T01:37:47.000Z,29
2018-08-06T01:39:47.000Z,29
2018-08-06T01:40:47.000Z,29
2018-08-06T01:41:47.000Z,29
2018-08-06T01:42:47.000Z,29
2018-08-06T01:43:47.000Z,29
2018-08-06T01:44:47.000Z,29
2018-08-06T01:45:47.000Z,29
2018-08-06T01:46:47.000Z,29
2018-08-06T01:47:47.000Z,29
2018-08-06T01:48:47.000Z,29
2018-08-06T01:49:47.000Z,29
2018-08-06T01:50:47.000Z,29
2018-08-06T01:51:47.000Z,29
2018-08-06T01:52:47.000Z,29
2018-08-06T01:53:47.000Z,29
2018-08-06T01:55:47.000Z,29
2018-08-06T01:56:47.000Z,29
2018-08-06T01:57:46.000Z,29
2018-08-06T01:58:46.000Z,29
2018-08-06T01:59:46.000Z,29
2018-08-06T02:00:46.000Z,29
2018-08-06T02:01:46.000Z,29
2018-08-06T02:02:46.000Z,29
2018-08-06T02:04:46.000Z,29
2018-08-06T02:05:46.000Z,29
2018-08-06T02:06:46.000Z,29
2018-08-06T02:07:46.000Z,29
2018-08-06T02:08:46.000Z,29
2018-08-06T02:09:46.000Z,29
2018-08-06T02:10:46.000Z,29
2018-08-06T02:11:46.000Z,29
2018-08-06T02:13:46.000Z,28
2018-08-06T02:14:46.000Z,29
2018-08-06T02:15:46.000Z,29
2018-08-06T02:16:46.000Z,29
2018-08-06T02:17:46.000Z,29
2018-08-06T02:18:46.000Z,29
2018-08-06T02:20:46.000Z,29
2018-08-06T02:21:46.000Z,29
2018-08-06T02:22:46.000Z,29
2018-08-06T02:23:46.000Z,29
2018-08-06T02:24:46.000Z,29
2018-08-06T02:25:46.000Z,29
2018-08-06T02:26:46.000Z,28
2018-08-06T02:27:46.000Z,29
2018-08-06T02:28:46.000Z,28
2018-08-06T02:30:46.000Z,28
2018-08-06T02:31:46.000Z,29
2018-08-06T02:33:46.000Z,29
2018-08-06T02:35:46.000Z,29
2018-08-06T02:36:46.000Z,29
2018-08-06T02:37:46.000Z,29
2018-08-06T02:38:46.000Z,29
2018-08-06T02:39:46.000Z,29
2018-08-06T02:40:46.000Z,29
2018-08-06T02:41:46.000Z,29
2018-08-06T02:42:46.000Z,29
2018-08-06T02:43:46.000Z,29
2018-08-06T02:44:46.000Z,29
2018-08-06T02:45:46.000Z,29
2018-08-06T02:47:46.000Z,29
2018-08-06T02:48:46.000Z,29
2018-08-06T02:49:46.000Z,29
2018-08-06T02:50:46.000Z,29
2018-08-06T02:51:46.000Z,29
2018-08-06T02:52:46.000Z,29
2018-08-06T02:54:46.000Z,29
2018-08-06T02:55:46.000Z,29
2018-08-06T02:56:46.000Z,28
2018-08-06T02:57:46.000Z,29
2018-08-06T02:58:46.000Z,29
2018-08-06T02:59:46.000Z,29
2018-08-06T03:00:46.000Z,28
2018-08-06T03:01:47.000Z,29
2018-08-06T03:02:47.000Z,28
2018-08-06T03:03:47.000Z,28
2018-08-06T03:05:47.000Z,28
2018-08-06T03:06:47.000Z,28
2018-08-06T03:07:47.000Z,28
2018-08-06T03:08:47.000Z,29
2018-08-06T03:09:47.000Z,28
2018-08-06T03:10:47.000Z,29
2018-08-06T03:11:47.000Z,28
2018-08-06T03:12:47.000Z,29
2018-08-06T03:13:47.000Z,29
2018-08-06T03:14:47.000Z,29
2018-08-06T03:15:47.000Z,29
2018-08-06T03:16:47.000Z,29
2018-08-06T03:17:47.000Z,29
2018-08-06T03:18:47.000Z,29
2018-08-06T03:19:47.000Z,28
2018-08-06T03:20:47.000Z,28
2018-08-06T03:21:47.000Z,28
2018-08-06T03:22:47.000Z,28
2018-08-06T03:23:47.000Z,28
2018-08-06T03:24:47.000Z,28
2018-08-06T03:25:47.000Z,28
2018-08-06T03:27:47.000Z,28
2018-08-06T03:28:47.000Z,28
2018-08-06T03:29:47.000Z,29
2018-08-06T03:30:47.000Z,29
2018-08-06T03:31:47.000Z,28
2018-08-06T03:33:47.000Z,28
2018-08-06T03:34:47.000Z,28
2018-08-06T03:36:47.000Z,28
2018-08-06T03:37:47.000Z,28
2018-08-06T03:38:47.000Z,28
2018-08-06T03:39:47.000Z,29
2018-08-06T03:40:47.000Z,29
2018-08-06T03:41:47.000Z,28
2018-08-06T03:42:47.000Z,29
2018-08-06T03:43:47.000Z,28
2018-08-06T03:44:47.000Z,29
2018-08-06T03:45:47.000Z,29
2018-08-06T03:46:47.000Z,28
2018-08-06T03:47:47.000Z,29
2018-08-06T03:48:47.000Z,28
2018-08-06T03:49:47.000Z,29
2018-08-06T03:50:47.000Z,28
2018-08-06T03:51:47.000Z,29
2018-08-06T03:52:47.000Z,28
2018-08-06T03:53:47.000Z,29
2018-08-06T03:55:47.000Z,28
2018-08-06T03:56:47.000Z,29
2018-08-06T03:57:47.000Z,28
2018-08-06T03:58:47.000Z,28
2018-08-06T03:59:47.000Z,28
2018-08-06T04:00:47.000Z,29
2018-08-06T04:01:47.000Z,28
2018-08-06T04:02:47.000Z,29
2018-08-06T04:03:47.000Z,29
2018-08-06T04:04:47.000Z,29
2018-08-06T04:05:47.000Z,28
2018-08-06T04:06:47.000Z,28
2018-08-06T04:07:47.000Z,28
2018-08-06T04:08:47.000Z,28
2018-08-06T04:09:47.000Z,28
2018-08-06T04:10:47.000Z,28
2018-08-06T04:11:47.000Z,28
2018-08-06T04:12:47.000Z,28
2018-08-06T04:13:47.000Z,28
2018-08-06T04:14:47.000Z,28
2018-08-06T04:15:47.000Z,28
2018-08-06T04:16:47.000Z,28
2018-08-06T04:17:47.000Z,28
2018-08-06T04:18:47.000Z,29
2018-08-06T04:19:47.000Z,28
2018-08-06T04:20:47.000Z,28
2018-08-06T04:21:47.000Z,28
2018-08-06T04:23:47.000Z,28
2018-08-06T04:24:47.000Z,28
2018-08-06T04:25:47.000Z,28
2018-08-06T04:27:47.000Z,28
2018-08-06T04:28:47.000Z,28
2018-08-06T04:29:47.000Z,28
2018-08-06T04:30:47.000Z,28
2018-08-06T04:31:47.000Z,28
2018-08-06T04:32:47.000Z,28
2018-08-06T04:33:47.000Z,28
2018-08-06T04:34:47.000Z,28
2018-08-06T04:36:47.000Z,29
2018-08-06T04:37:47.000Z,30
2018-08-06T04:38:47.000Z,30
2018-08-06T04:40:47.000Z,31
2018-08-06T04:41:47.000Z,31
2018-08-06T04:42:47.000Z,32
2018-08-06T04:43:47.000Z,32
2018-08-06T04:45:47.000Z,33
2018-08-06T04:47:47.000Z,33
2018-08-06T04:48:47.000Z,34
2018-08-06T04:49:47.000Z,34
2018-08-06T04:50:47.000Z,35
2018-08-06T04:52:47.000Z,35
2018-08-06T04:53:47.000Z,35
2018-08-06T04:54:47.000Z,36
2018-08-06T04:55:47.000Z,36
2018-08-06T04:56:47.000Z,36
2018-08-06T04:57:47.000Z,36
2018-08-06T04:58:47.000Z,36
2018-08-06T05:00:47.000Z,37
2018-08-06T05:01:47.000Z,37
2018-08-06T05:02:47.000Z,38
2018-08-06T05:03:47.000Z,38
2018-08-06T05:04:47.000Z,38
2018-08-06T05:05:47.000Z,38
2018-08-06T05:06:47.000Z,39
2018-08-06T05:07:47.000Z,39
2018-08-06T05:08:47.000Z,39
2018-08-06T05:09:47.000Z,39
2018-08-06T05:10:47.000Z,39
2018-08-06T05:11:47.000Z,39
2018-08-06T05:12:47.000Z,39
2018-08-06T05:13:47.000Z,39
2018-08-06T05:14:47.000Z,40
2018-08-06T05:15:47.000Z,40
2018-08-06T05:17:47.000Z,40
2018-08-06T05:18:47.000Z,40
2018-08-06T05:19:47.000Z,40
2018-08-06T05:20:47.000Z,40
2018-08-06T05:21:47.000Z,40
2018-08-06T05:22:47.000Z,40
2018-08-06T05:23:47.000Z,40
2018-08-06T05:24:47.000Z,40
2018-08-06T05:25:47.000Z,40
2018-08-06T05:26:47.000Z,40
2018-08-06T05:27:47.000Z,39
2018-08-06T05:28:47.000Z,40
2018-08-06T05:29:47.000Z,39
2018-08-06T05:30:47.000Z,40
2018-08-06T05:31:47.000Z,40
2018-08-06T05:32:47.000Z,40
2018-08-06T05:33:47.000Z,40
2018-08-06T05:34:47.000Z,40
2018-08-06T05:35:47.000Z,40
2018-08-06T05:36:47.000Z,40
2018-08-06T05:37:47.000Z,40
2018-08-06T05:39:47.000Z,40
2018-08-06T05:41:47.000Z,40
2018-08-06T05:42:47.000Z,40
2018-08-06T05:43:47.000Z,40
2018-08-06T05:45:47.000Z,40
2018-08-06T05:46:47.000Z,40
2018-08-06T05:48:47.000Z,40
2018-08-06T05:49:47.000Z,40
2018-08-06T05:50:47.000Z,40
2018-08-06T05:51:47.000Z,40
2018-08-06T05:52:47.000Z,40
2018-08-06T05:53:47.000Z,40
2018-08-06T05:54:47.000Z,41
2018-08-06T05:55:47.000Z,40
2018-08-06T05:56:47.000Z,41
2018-08-06T05:57:47.000Z,41
2018-08-06T05:59:47.000Z,41
2018-08-06T06:00:47.000Z,41
2018-08-06T06:02:47.000Z,41
2018-08-06T06:03:47.000Z,41
2018-08-06T06:04:47.000Z,41
2018-08-06T06:05:47.000Z,41
2018-08-06T06:06:47.000Z,41
2018-08-06T06:07:47.000Z,41
2018-08-06T06:08:47.000Z,41
2018-08-06T06:09:47.000Z,41
2018-08-06T06:10:47.000Z,41
2018-08-06T06:11:47.000Z,41
2018-08-06T06:13:47.000Z,41
2018-08-06T06:14:47.000Z,41
2018-08-06T06:16:47.000Z,41
2018-08-06T06:17:47.000Z,41
2018-08-06T06:18:47.000Z,41
2018-08-06T06:19:47.000Z,41
2018-08-06T06:20:47.000Z,41
2018-08-06T06:22:47.000Z,41
2018-08-06T06:23:47.000Z,41
2018-08-06T06:24:47.000Z,41
2018-08-06T06:25:47.000Z,41
2018-08-06T06:26:47.000Z,41
2018-08-06T06:28:47.000Z,41
2018-08-06T06:29:47.000Z,41
2018-08-06T06:30:47.000Z,41
2018-08-06T06:31:47.000Z,41
2018-08-06T06:32:47.000Z,41
2018-08-06T06:33:47.000Z,41
2018-08-06T06:34:47.000Z,41
2018-08-06T06:35:47.000Z,41
2018-08-06T06:36:47.000Z,41
2018-08-06T06:37:47.000Z,41
2018-08-06T06:38:47.000Z,41
2018-08-06T06:39:47.000Z,41
2018-08-06T06:40:47.000Z,41
2018-08-06T06:41:47.000Z,41
2018-08-06T06:42:47.000Z,41
2018-08-06T06:43:47.000Z,41
2018-08-06T06:44:47.000Z,41
2018-08-06T06:45:47.000Z,41
2018-08-06T06:46:47.000Z,41
2018-08-06T06:47:47.000Z,41
2018-08-06T06:48:47.000Z,41
2018-08-06T06:49:47.000Z,40
2018-08-06T06:50:47.000Z,40
2018-08-06T06:51:47.000Z,40
2018-08-06T06:52:47.000Z,40
2018-08-06T06:53:47.000Z,40
2018-08-06T06:54:47.000Z,40
2018-08-06T06:55:47.000Z,40
2018-08-06T06:56:47.000Z,40
2018-08-06T06:57:47.000Z,40
2018-08-06T06:58:47.000Z,40
2018-08-06T06:59:47.000Z,40
2018-08-06T07:00:47.000Z,40
2018-08-06T07:01:47.000Z,39
2018-08-06T07:02:47.000Z,39
2018-08-06T07:03:47.000Z,39
2018-08-06T07:04:47.000Z,39
2018-08-06T07:06:47.000Z,39
2018-08-06T07:07:47.000Z,39
2018-08-06T07:08:47.000Z,38
2018-08-06T07:09:47.000Z,39
2018-08-06T07:10:47.000Z,38
2018-08-06T07:11:47.000Z,38
2018-08-06T07:13:47.000Z,38
2018-08-06T07:14:47.000Z,38
2018-08-06T07:15:47.000Z,38
2018-08-06T07:16:47.000Z,37
2018-08-06T07:18:47.000Z,37
2018-08-06T07:19:47.000Z,37
2018-08-06T07:20:47.000Z,37
2018-08-06T07:21:47.000Z,37
2018-08-06T07:22:47.000Z,37
2018-08-06T07:23:47.000Z,37
2018-08-06T07:25:47.000Z,36
2018-08-06T07:26:47.000Z,36
2018-08-06T07:27:47.000Z,37
2018-08-06T07:28:47.000Z,36
2018-08-06T07:29:47.000Z,37
2018-08-06T07:31:47.000Z,36
2018-08-06T07:32:47.000Z,36
2018-08-06T07:33:47.000Z,36
2018-08-06T07:34:47.000Z,36
2018-08-06T07:35:47.000Z,36
2018-08-06T07:36:47.000Z,36
2018-08-06T07:37:47.000Z,36
2018-08-06T07:38:47.000Z,36
2018-08-06T07:39:47.000Z,36
2018-08-06T07:40:47.000Z,36
2018-08-06T07:41:47.000Z,36
2018-08-06T07:42:47.000Z,36
2018-08-06T07:44:47.000Z,35
2018-08-06T07:45:47.000Z,35
2018-08-06T07:46:47.000Z,35
2018-08-06T07:48:47.000Z,35
2018-08-06T07:49:47.000Z,35
2018-08-06T07:51:47.000Z,35
2018-08-06T07:52:47.000Z,35
2018-08-06T07:54:47.000Z,35
2018-08-06T07:55:47.000Z,35
2018-08-06T07:56:47.000Z,35
2018-08-06T07:57:47.000Z,35
2018-08-06T07:58:47.000Z,35
2018-08-06T07:59:47.000Z,35
2018-08-06T08:00:47.000Z,35
2018-08-06T08:01:47.000Z,35
2018-08-06T08:03:47.000Z,34
2018-08-06T08:04:47.000Z,34
2018-08-06T08:05:47.000Z,34
2018-08-06T08:06:47.000Z,34
2018-08-06T08:07:47.000Z,34
2018-08-06T08:08:47.000Z,34
2018-08-06T08:09:47.000Z,34
2018-08-06T08:10:47.000Z,34
2018-08-06T08:11:47.000Z,34
2018-08-06T08:12:47.000Z,34
2018-08-06T08:13:47.000Z,33
2018-08-06T08:15:47.000Z,33
2018-08-06T08:16:47.000Z,33
2018-08-06T08:17:47.000Z,33
2018-08-06T08:19:47.000Z,33
2018-08-06T08:20:47.000Z,33
2018-08-06T08:21:47.000Z,33
2018-08-06T08:22:47.000Z,33
2018-08-06T08:23:47.000Z,32
2018-08-06T08:24:47.000Z,32
2018-08-06T08:25:47.000Z,32
2018-08-06T08:26:47.000Z,32
2018-08-06T08:27:47.000Z,32
2018-08-06T08:28:47.000Z,32
2018-08-06T08:29:47.000Z,32
2018-08-06T08:30:47.000Z,32
2018-08-06T08:31:47.000Z,32
2018-08-06T08:32:47.000Z,32
2018-08-06T08:33:47.000Z,32
2018-08-06T08:35:47.000Z,31
2018-08-06T08:36:47.000Z,32
2018-08-06T08:37:47.000Z,32
2018-08-06T08:39:47.000Z,31
2018-08-06T08:40:47.000Z,32
2018-08-06T08:41:47.000Z,31
2018-08-06T08:43:47.000Z,31
2018-08-06T08:44:47.000Z,32
2018-08-06T08:45:47.000Z,31
2018-08-06T08:46:47.000Z,31
2018-08-06T08:47:47.000Z,31
2018-08-06T08:48:47.000Z,31
2018-08-06T08:49:47.000Z,31
2018-08-06T08:50:47.000Z,31
2018-08-06T08:51:47.000Z,31
2018-08-06T08:52:47.000Z,31
2018-08-06T08:53:47.000Z,31
2018-08-06T08:54:47.000Z,31
2018-08-06T08:55:47.000Z,31
2018-08-06T08:56:47.000Z,31
2018-08-06T08:57:47.000Z,31
2018-08-06T08:58:47.000Z,31
2018-08-06T08:59:47.000Z,31
2018-08-06T09:00:47.000Z,31
2018-08-06T09:01:47.000Z,31
2018-08-06T09:02:47.000Z,31
2018-08-06T09:03:47.000Z,31
2018-08-06T09:04:47.000Z,31
2018-08-06T09:05:47.000Z,31
2018-08-06T09:06:47.000Z,30
2018-08-06T09:07:47.000Z,30
2018-08-06T09:08:47.000Z,30
2018-08-06T09:09:47.000Z,30
2018-08-06T09:10:47.000Z,30
2018-08-06T09:11:47.000Z,30
2018-08-06T09:13:47.000Z,30
2018-08-06T09:14:47.000Z,30
2018-08-06T09:15:47.000Z,30
2018-08-06T09:16:47.000Z,30
2018-08-06T09:17:47.000Z,30
2018-08-06T09:18:47.000Z,30
2018-08-06T09:19:47.000Z,30
2018-08-06T09:20:47.000Z,30
2018-08-06T09:22:47.000Z,30
2018-08-06T09:23:47.000Z,30
2018-08-06T09:24:47.000Z,30
2018-08-06T09:26:47.000Z,30
2018-08-06T09:27:47.000Z,30
2018-08-06T09:28:47.000Z,30
2018-08-06T09:29:47.000Z,30
2018-08-06T09:30:47.000Z,30
2018-08-06T09:31:47.000Z,30
2018-08-06T09:32:47.000Z,30
2018-08-06T09:33:47.000Z,30
2018-08-06T09:34:47.000Z,30
2018-08-06T09:35:47.000Z,30
2018-08-06T09:36:47.000Z,29
2018-08-06T09:38:47.000Z,29
2018-08-06T09:39:47.000Z,29
2018-08-06T09:40:47.000Z,29
2018-08-06T09:41:47.000Z,29
2018-08-06T09:42:47.000Z,29
2018-08-06T09:43:47.000Z,29
2018-08-06T09:44:47.000Z,29
2018-08-06T09:45:47.000Z,29
2018-08-06T09:46:47.000Z,29
2018-08-06T09:47:47.000Z,29
2018-08-06T09:49:47.000Z,29
2018-08-06T09:50:47.000Z,29
2018-08-06T09:51:47.000Z,29
2018-08-06T09:53:47.000Z,29
2018-08-06T09:54:47.000Z,29
2018-08-06T09:55:47.000Z,29
2018-08-06T09:56:47.000Z,29
2018-08-06T09:57:47.000Z,29
2018-08-06T09:58:47.000Z,29
2018-08-06T09:59:47.000Z,29
2018-08-06T10:01:47.000Z,29
2018-08-06T10:02:47.000Z,29
2018-08-06T10:03:47.000Z,29
2018-08-06T10:04:47.000Z,29
2018-08-06T10:05:47.000Z,29
2018-08-06T10:06:47.000Z,29
2018-08-06T10:07:47.000Z,29
2018-08-06T10:08:47.000Z,29
2018-08-06T10:09:47.000Z,28
2018-08-06T10:10:47.000Z,28
2018-08-06T10:11:47.000Z,28
2018-08-06T10:12:47.000Z,28
2018-08-06T10:13:47.000Z,28
2018-08-06T10:14:47.000Z,28
2018-08-06T10:15:47.000Z,28
2018-08-06T10:16:47.000Z,28
2018-08-06T10:17:47.000Z,28
2018-08-06T10:18:47.000Z,28
2018-08-06T10:19:47.000Z,28
2018-08-06T10:20:47.000Z,28
2018-08-06T10:21:47.000Z,28
2018-08-06T10:23:47.000Z,28
2018-08-06T10:24:47.000Z,28
2018-08-06T10:25:47.000Z,28
2018-08-06T10:26:47.000Z,28
2018-08-06T10:27:47.000Z,28
2018-08-06T10:28:47.000Z,28
2018-08-06T10:29:47.000Z,28
2018-08-06T10:30:47.000Z,28
2018-08-06T10:31:47.000Z,28
2018-08-06T10:32:47.000Z,28
2018-08-06T10:33:47.000Z,28
2018-08-06T10:34:47.000Z,28
2018-08-06T10:35:47.000Z,28
2018-08-06T10:36:47.000Z,28
2018-08-06T10:37:47.000Z,28
2018-08-06T10:38:47.000Z,27
2018-08-06T10:39:47.000Z,28
2018-08-06T10:40:47.000Z,28
2018-08-06T10:41:47.000Z,28
2018-08-06T10:42:47.000Z,28
2018-08-06T10:43:47.000Z,28
2018-08-06T10:44:47.000Z,27
2018-08-06T10:45:47.000Z,27
2018-08-06T10:46:47.000Z,27
2018-08-06T10:47:47.000Z,27
2018-08-06T10:48:47.000Z,27
2018-08-06T10:49:47.000Z,27
2018-08-06T10:50:47.000Z,27
2018-08-06T10:52:47.000Z,27
2018-08-06T10:53:47.000Z,27
2018-08-06T10:55:47.000Z,27
2018-08-06T10:56:47.000Z,27
2018-08-06T10:57:47.000Z,27
2018-08-06T10:58:47.000Z,27
2018-08-06T10:59:47.000Z,27
2018-08-06T11:00:47.000Z,27
2018-08-06T11:01:47.000Z,27
2018-08-06T11:03:47.000Z,27
2018-08-06T11:04:47.000Z,27
2018-08-06T11:05:47.000Z,27
2018-08-06T11:06:47.000Z,27
2018-08-06T11:07:47.000Z,27
2018-08-06T11:08:47.000Z,27
2018-08-06T11:09:47.000Z,27
2018-08-06T11:10:47.000Z,27
2018-08-06T11:11:47.000Z,27
2018-08-06T11:13:47.000Z,27
2018-08-06T11:14:47.000Z,27
2018-08-06T11:16:47.000Z,27
2018-08-06T11:17:47.000Z,27
2018-08-06T11:18:47.000Z,27
2018-08-06T11:20:47.000Z,27
2018-08-06T11:21:47.000Z,27
2018-08-06T11:22:47.000Z,27
2018-08-06T11:23:47.000Z,27
2018-08-06T11:24:47.000Z,27
2018-08-06T11:25:47.000Z,26
2018-08-06T11:26:47.000Z,26
2018-08-06T11:28:47.000Z,26
2018-08-06T11:29:47.000Z,26
2018-08-06T11:30:47.000Z,26
2018-08-06T11:31:47.000Z,26
2018-08-06T11:32:47.000Z,25
2018-08-06T11:33:47.000Z,26
2018-08-06T11:34:47.000Z,26
2018-08-06T11:35:47.000Z,26
2018-08-06T11:36:47.000Z,26
2018-08-06T11:37:47.000Z,25
2018-08-06T11:38:47.000Z,25
2018-08-06T11:39:47.000Z,25
2018-08-06T11:40:47.000Z,25
2018-08-06T11:44:33.000Z,25
2018-08-06T11:45:33.000Z,25
2018-08-06T11:47:33.000Z,25
2018-08-06T11:48:33.000Z,26
2018-08-06T11:49:33.000Z,26
2018-08-06T11:50:33.000Z,26
2018-08-06T11:51:33.000Z,26
2018-08-06T11:52:33.000Z,26
2018-08-06T11:53:33.000Z,25
2018-08-06T11:54:33.000Z,25
2018-08-06T11:55:33.000Z,25
2018-08-06T11:56:33.000Z,25
2018-08-06T11:57:33.000Z,25
2018-08-06T11:58:33.000Z,25
2018-08-06T11:59:33.000Z,25
2018-08-06T12:00:33.000Z,25
2018-08-06T12:01:33.000Z,25
2018-08-06T12:03:33.000Z,25
2018-08-06T12:04:33.000Z,25
2018-08-06T12:05:33.000Z,25
2018-08-06T12:06:33.000Z,25
2018-08-06T12:07:33.000Z,25
2018-08-06T12:08:33.000Z,25
2018-08-06T12:09:33.000Z,25
2018-08-06T12:11:33.000Z,24
2018-08-06T12:12:33.000Z,24
2018-08-06T12:13:33.000Z,25
2018-08-06T12:14:33.000Z,24
2018-08-06T12:16:33.000Z,24
2018-08-06T12:17:33.000Z,24
2018-08-06T12:18:33.000Z,24
2018-08-06T12:19:33.000Z,24
2018-08-06T12:20:33.000Z,24
2018-08-06T12:21:33.000Z,24
2018-08-06T12:22:33.000Z,24
2018-08-06T12:23:33.000Z,24
2018-08-06T12:25:33.000Z,24
2018-08-06T12:26:33.000Z,24
2018-08-06T12:27:33.000Z,24
2018-08-06T12:28:33.000Z,24
2018-08-06T12:29:33.000Z,24
2018-08-06T12:30:33.000Z,23
2018-08-06T12:31:33.000Z,24
2018-08-06T12:32:33.000Z,24
2018-08-06T12:33:33.000Z,24
2018-08-06T12:35:33.000Z,24
2018-08-06T12:36:33.000Z,24
2018-08-06T12:37:33.000Z,24
2018-08-06T12:38:33.000Z,24
2018-08-06T12:39:33.000Z,24
2018-08-06T12:40:33.000Z,24
2018-08-06T12:41:33.000Z,24
2018-08-06T12:42:33.000Z,24
2018-08-06T12:43:33.000Z,24
2018-08-06T12:45:33.000Z,23
2018-08-06T12:46:33.000Z,23
2018-08-06T12:48:33.000Z,23
2018-08-06T12:50:33.000Z,23
2018-08-06T12:51:33.000Z,24
2018-08-06T12:52:33.000Z,24
2018-08-06T12:54:33.000Z,23
2018-08-06T12:55:33.000Z,24
2018-08-06T12:56:33.000Z,23
2018-08-06T12:57:33.000Z,23
2018-08-06T12:59:33.000Z,23
2018-08-06T13:00:33.000Z,23
2018-08-06T13:01:33.000Z,23
2018-08-06T13:02:33.000Z,23
2018-08-06T13:03:33.000Z,23
2018-08-06T13:04:33.000Z,23
2018-08-06T13:05:33.000Z,23
2018-08-06T13:06:33.000Z,22
2018-08-06T13:07:33.000Z,22
2018-08-06T13:08:33.000Z,22
2018-08-06T13:09:33.000Z,22
2018-08-06T13:10:33.000Z,22
2018-08-06T13:11:33.000Z,22
2018-08-06T13:12:33.000Z,22
2018-08-06T13:13:33.000Z,22
2018-08-06T13:14:33.000Z,22
2018-08-06T13:16:33.000Z,22
2018-08-06T13:17:33.000Z,22
2018-08-06T13:19:33.000Z,22
2018-08-06T13:20:33.000Z,22
2018-08-06T13:21:33.000Z,22
2018-08-06T13:22:33.000Z,22
2018-08-06T13:23:33.000Z,22
2018-08-06T13:24:33.000Z,22
2018-08-06T13:26:33.000Z,22
2018-08-06T13:27:33.000Z,22
2018-08-06T13:28:33.000Z,22
2018-08-06T13:29:33.000Z,22
2018-08-06T13:31:33.000Z,22
2018-08-06T13:32:33.000Z,22
2018-08-06T13:33:33.000Z,22
2018-08-06T13:34:33.000Z,22
2018-08-06T13:35:33.000Z,22
2018-08-06T13:36:33.000Z,22
2018-08-06T13:37:33.000Z,22
2018-08-06T13:38:33.000Z,22
2018-08-06T13:39:33.000Z,22
2018-08-06T13:40:33.000Z,22
2018-08-06T13:41:33.000Z,22
2018-08-06T13:42:33.000Z,22
2018-08-06T13:44:33.000Z,22
2018-08-06T13:45:33.000Z,22
2018-08-06T13:46:33.000Z,22
2018-08-06T13:47:33.000Z,22
2018-08-06T13:48:33.000Z,22
2018-08-06T13:49:33.000Z,22
2018-08-06T13:50:33.000Z,22
2018-08-06T13:51:33.000Z,22
2018-08-06T13:52:33.000Z,22
2018-08-06T13:53:33.000Z,22
2018-08-06T13:54:33.000Z,22
2018-08-06T13:55:33.000Z,22
2018-08-06T13:56:33.000Z,22
2018-08-06T13:57:33.000Z,22
2018-08-06T13:58:33.000Z,22
2018-08-06T14:00:33.000Z,22
2018-08-06T14:01:33.000Z,22
2018-08-06T14:02:33.000Z,21
2018-08-06T14:03:33.000Z,21
2018-08-06T14:04:33.000Z,21
2018-08-06T14:05:33.000Z,21
2018-08-06T14:06:33.000Z,21
2018-08-06T14:07:33.000Z,21
2018-08-06T14:08:33.000Z,21
2018-08-06T14:09:33.000Z,21
2018-08-06T14:10:33.000Z,21
2018-08-06T14:11:33.000Z,21
2018-08-06T14:13:33.000Z,21
2018-08-06T14:17:19.000Z,21
2018-08-06T14:18:19.000Z,21
2018-08-06T14:19:19.000Z,21
2018-08-06T14:20:19.000Z,21
2018-08-06T14:21:19.000Z,21
2018-08-06T14:22:19.000Z,21
2018-08-06T14:23:19.000Z,21
2018-08-06T14:24:19.000Z,21
2018-08-06T14:25:19.000Z,21
2018-08-06T14:26:19.000Z,21
2018-08-06T14:27:19.000Z,21
2018-08-06T14:28:19.000Z,21
2018-08-06T14:29:19.000Z,21
2018-08-06T14:30:19.000Z,21
2018-08-06T14:31:19.000Z,21
2018-08-06T14:32:19.000Z,21
2018-08-06T14:33:19.000Z,20
2018-08-06T14:34:19.000Z,20
2018-08-06T14:36:19.000Z,20
2018-08-06T14:37:19.000Z,20
2018-08-06T14:38:19.000Z,20
2018-08-06T14:39:19.000Z,21
2018-08-06T14:40:19.000Z,21
2018-08-06T14:41:19.000Z,20
2018-08-06T14:42:19.000Z,20
2018-08-06T14:43:19.000Z,21
2018-08-06T14:44:19.000Z,20
2018-08-06T14:45:19.000Z,20
2018-08-06T14:46:19.000Z,20
2018-08-06T14:47:19.000Z,21
2018-08-06T14:48:19.000Z,20
2018-08-06T14:49:19.000Z,20
2018-08-06T14:50:19.000Z,21
2018-08-06T14:51:19.000Z,20
2018-08-06T14:53:19.000Z,20
2018-08-06T14:54:19.000Z,21
2018-08-06T14:55:19.000Z,21
2018-08-06T14:56:19.000Z,20
2018-08-06T14:58:19.000Z,20
2018-08-06T14:59:19.000Z,20
2018-08-06T15:00:19.000Z,20
2018-08-06T15:01:19.000Z,20
2018-08-06T15:03:19.000Z,20
2018-08-06T15:05:19.000Z,20
2018-08-06T15:06:19.000Z,21
2018-08-06T15:07:19.000Z,21
2018-08-06T15:08:19.000Z,21
2018-08-06T15:09:19.000Z,21
2018-08-06T15:10:19.000Z,21
2018-08-06T15:11:19.000Z,21
2018-08-06T15:12:19.000Z,21
2018-08-06T15:14:19.000Z,21
2018-08-06T15:15:19.000Z,21
2018-08-06T15:16:19.000Z,21
2018-08-06T15:17:19.000Z,21
2018-08-06T15:18:19.000Z,21
2018-08-06T15:19:19.000Z,21
2018-08-06T15:21:19.000Z,21
2018-08-06T15:22:19.000Z,21
2018-08-06T15:23:19.000Z,21
2018-08-06T15:24:19.000Z,21
2018-08-06T15:25:19.000Z,21
2018-08-06T15:27:19.000Z,21
2018-08-06T15:28:19.000Z,21
2018-08-06T15:29:19.000Z,21
2018-08-06T15:30:19.000Z,21
2018-08-06T15:31:19.000Z,22
2018-08-06T15:32:19.000Z,22
2018-08-06T15:33:19.000Z,22
2018-08-06T15:34:19.000Z,22
2018-08-06T15:36:19.000Z,22
2018-08-06T15:37:19.000Z,22
2018-08-06T15:38:19.000Z,22
2018-08-06T15:40:19.000Z,22
2018-08-06T15:41:19.000Z,22
2018-08-06T15:42:19.000Z,22
2018-08-06T15:43:19.000Z,22
2018-08-06T15:44:19.000Z,22
2018-08-06T15:45:19.000Z,22
2018-08-06T15:46:19.000Z,22
2018-08-06T15:47:19.000Z,22
2018-08-06T15:48:19.000Z,22
2018-08-06T15:49:19.000Z,22
2018-08-06T15:50:19.000Z,22
2018-08-06T15:51:19.000Z,22
2018-08-06T15:52:19.000Z,22
2018-08-06T15:53:19.000Z,22
2018-08-06T15:54:19.000Z,22
2018-08-06T15:55:19.000Z,22
2018-08-06T15:56:19.000Z,22
2018-08-06T15:57:19.000Z,22
2018-08-06T15:58:19.000Z,22
2018-08-06T15:59:19.000Z,22
2018-08-06T16:00:19.000Z,22
2018-08-06T16:01:19.000Z,22
2018-08-06T16:02:19.000Z,22
2018-08-06T16:03:19.000Z,22
2018-08-06T16:04:19.000Z,22